sensor_id;sensor_type;location;lat;lon;timestamp;P1;durP1;ratioP1;P2;durP2;ratioP2
57752;SDS011;43583;53.132;6.574;2022-11-15T00:01:43;19.45;;;12.30;;
57752;SDS011;43583;53.132;6.574;2022-11-15T00:04:09;18.55;;;10.93;;
57752;SDS011;43583;53.132;6.574;2022-11-15T00:06:35;17.80;;;10.48;;
57752;SDS011;43583;53.132;6.574;2022-11-15T00:09:01;20.17;;;10.75;;
57752;SDS011;43583;53.132;6.574;2022-11-15T00:11:27;18.50;;;10.70;;
57752;SDS011;43583;53.132;6.574;2022-11-15T00:13:56;17.73;;;11.88;;
57752;SDS011;43583;53.132;6.574;2022-11-15T00:16:22;21.75;;;12.27;;
57752;SDS011;43583;53.132;6.574;2022-11-15T00:18:48;20.80;;;11.18;;
57752;SDS011;43583;53.132;6.574;2022-11-15T00:21:14;19.77;;;11.45;;
57752;SDS011;43583;53.132;6.574;2022-11-15T00:23:40;19.30;;;11.02;;
57752;SDS011;43583;53.132;6.574;2022-11-15T00:26:06;17.95;;;10.73;;
57752;SDS011;43583;53.132;6.574;2022-11-15T00:28:34;21.15;;;11.60;;
57752;SDS011;43583;53.132;6.574;2022-11-15T00:31:03;19.75;;;11.38;;
57752;SDS011;43583;53.132;6.574;2022-11-15T00:33:31;17.15;;;10.77;;
57752;SDS011;43583;53.132;6.574;2022-11-15T00:36:00;22.00;;;12.40;;
57752;SDS011;43583;53.132;6.574;2022-11-15T00:38:31;23.85;;;12.40;;
57752;SDS011;43583;53.132;6.574;2022-11-15T00:40:57;23.48;;;12.35;;
57752;SDS011;43583;53.132;6.574;2022-11-15T00:43:23;21.13;;;11.05;;
57752;SDS011;43583;53.132;6.574;2022-11-15T00:45:48;22.45;;;11.73;;
57752;SDS011;43583;53.132;6.574;2022-11-15T00:48:14;26.00;;;13.50;;
57752;SDS011;43583;53.132;6.574;2022-11-15T00:50:40;24.25;;;12.77;;
57752;SDS011;43583;53.132;6.574;2022-11-15T00:53:05;23.75;;;12.70;;
57752;SDS011;43583;53.132;6.574;2022-11-15T00:55:31;21.50;;;11.68;;
57752;SDS011;43583;53.132;6.574;2022-11-15T00:57:56;23.13;;;12.82;;
57752;SDS011;43583;53.132;6.574;2022-11-15T01:00:22;23.60;;;12.63;;
57752;SDS011;43583;53.132;6.574;2022-11-15T01:02:48;22.15;;;12.82;;
57752;SDS011;43583;53.132;6.574;2022-11-15T01:05:13;24.35;;;12.88;;
57752;SDS011;43583;53.132;6.574;2022-11-15T01:07:39;22.15;;;11.88;;
57752;SDS011;43583;53.132;6.574;2022-11-15T01:10:04;23.30;;;12.80;;
57752;SDS011;43583;53.132;6.574;2022-11-15T01:12:30;21.55;;;11.23;;
57752;SDS011;43583;53.132;6.574;2022-11-15T01:14:57;21.48;;;12.68;;
57752;SDS011;43583;53.132;6.574;2022-11-15T01:17:22;18.88;;;10.38;;
57752;SDS011;43583;53.132;6.574;2022-11-15T01:19:48;22.13;;;12.82;;
57752;SDS011;43583;53.132;6.574;2022-11-15T01:22:14;21.35;;;13.00;;
57752;SDS011;43583;53.132;6.574;2022-11-15T01:24:40;22.80;;;12.63;;
57752;SDS011;43583;53.132;6.574;2022-11-15T01:27:05;24.67;;;12.38;;
57752;SDS011;43583;53.132;6.574;2022-11-15T01:29:31;25.20;;;13.90;;
57752;SDS011;43583;53.132;6.574;2022-11-15T01:31:57;24.13;;;12.68;;
57752;SDS011;43583;53.132;6.574;2022-11-15T01:34:23;24.30;;;13.43;;
57752;SDS011;43583;53.132;6.574;2022-11-15T01:36:48;26.48;;;13.60;;
57752;SDS011;43583;53.132;6.574;2022-11-15T01:39:14;26.98;;;13.82;;
57752;SDS011;43583;53.132;6.574;2022-11-15T01:41:40;25.70;;;13.02;;
57752;SDS011;43583;53.132;6.574;2022-11-15T01:47:00;27.58;;;13.80;;
57752;SDS011;43583;53.132;6.574;2022-11-15T01:49:30;19.88;;;12.32;;
57752;SDS011;43583;53.132;6.574;2022-11-15T01:52:00;20.73;;;12.30;;
57752;SDS011;43583;53.132;6.574;2022-11-15T01:54:27;24.20;;;12.40;;
57752;SDS011;43583;53.132;6.574;2022-11-15T01:56:53;21.63;;;12.48;;
57752;SDS011;43583;53.132;6.574;2022-11-15T01:59:23;21.38;;;11.50;;
57752;SDS011;43583;53.132;6.574;2022-11-15T02:01:50;19.65;;;11.68;;
57752;SDS011;43583;53.132;6.574;2022-11-15T02:04:17;20.10;;;11.75;;
57752;SDS011;43583;53.132;6.574;2022-11-15T02:06:49;22.55;;;12.18;;
57752;SDS011;43583;53.132;6.574;2022-11-15T02:09:15;18.77;;;10.25;;
57752;SDS011;43583;53.132;6.574;2022-11-15T02:11:42;25.58;;;12.88;;
57752;SDS011;43583;53.132;6.574;2022-11-15T02:14:10;25.85;;;12.05;;
57752;SDS011;43583;53.132;6.574;2022-11-15T02:30:53;29.23;;;13.27;;
57752;SDS011;43583;53.132;6.574;2022-11-15T02:36:10;24.63;;;12.30;;
57752;SDS011;43583;53.132;6.574;2022-11-15T02:38:54;26.45;;;13.60;;
57752;SDS011;43583;53.132;6.574;2022-11-15T02:44:24;26.45;;;12.45;;
57752;SDS011;43583;53.132;6.574;2022-11-15T02:46:58;30.83;;;12.95;;
57752;SDS011;43583;53.132;6.574;2022-11-15T02:49:39;29.25;;;13.52;;
57752;SDS011;43583;53.132;6.574;2022-11-15T02:52:08;25.33;;;13.00;;
57752;SDS011;43583;53.132;6.574;2022-11-15T02:54:33;27.02;;;12.02;;
57752;SDS011;43583;53.132;6.574;2022-11-15T02:57:18;23.67;;;12.07;;
57752;SDS011;43583;53.132;6.574;2022-11-15T03:00:05;26.48;;;12.18;;
57752;SDS011;43583;53.132;6.574;2022-11-15T03:02:36;27.80;;;13.40;;
57752;SDS011;43583;53.132;6.574;2022-11-15T03:08:02;25.63;;;12.25;;
57752;SDS011;43583;53.132;6.574;2022-11-15T03:10:46;29.88;;;13.65;;
57752;SDS011;43583;53.132;6.574;2022-11-15T03:13:27;27.27;;;12.43;;
57752;SDS011;43583;53.132;6.574;2022-11-15T03:16:50;32.25;;;12.95;;
57752;SDS011;43583;53.132;6.574;2022-11-15T03:19:17;22.15;;;12.48;;
57752;SDS011;43583;53.132;6.574;2022-11-15T03:21:59;28.77;;;12.15;;
57752;SDS011;43583;53.132;6.574;2022-11-15T03:24:29;26.60;;;13.45;;
57752;SDS011;43583;53.132;6.574;2022-11-15T03:26:58;26.45;;;13.32;;
57752;SDS011;43583;53.132;6.574;2022-11-15T03:29:27;26.42;;;11.98;;
57752;SDS011;43583;53.132;6.574;2022-11-15T03:31:59;26.45;;;11.90;;
57752;SDS011;43583;53.132;6.574;2022-11-15T03:34:39;29.35;;;14.35;;
57752;SDS011;43583;53.132;6.574;2022-11-15T03:37:11;26.25;;;11.60;;
57752;SDS011;43583;53.132;6.574;2022-11-15T03:39:39;29.23;;;12.98;;
57752;SDS011;43583;53.132;6.574;2022-11-15T03:44:46;28.23;;;11.50;;
57752;SDS011;43583;53.132;6.574;2022-11-15T03:47:16;27.42;;;12.80;;
57752;SDS011;43583;53.132;6.574;2022-11-15T03:49:52;29.15;;;12.88;;
57752;SDS011;43583;53.132;6.574;2022-11-15T03:52:23;28.38;;;13.23;;
57752;SDS011;43583;53.132;6.574;2022-11-15T03:54:49;27.15;;;12.15;;
57752;SDS011;43583;53.132;6.574;2022-11-15T03:57:19;26.88;;;11.93;;
57752;SDS011;43583;53.132;6.574;2022-11-15T03:59:44;29.95;;;13.30;;
57752;SDS011;43583;53.132;6.574;2022-11-15T04:02:11;33.28;;;14.50;;
57752;SDS011;43583;53.132;6.574;2022-11-15T04:04:37;30.55;;;13.18;;
57752;SDS011;43583;53.132;6.574;2022-11-15T04:07:02;29.00;;;13.23;;
57752;SDS011;43583;53.132;6.574;2022-11-15T04:09:28;30.45;;;13.45;;
57752;SDS011;43583;53.132;6.574;2022-11-15T04:11:53;32.78;;;13.80;;
57752;SDS011;43583;53.132;6.574;2022-11-15T04:14:19;34.90;;;14.60;;
57752;SDS011;43583;53.132;6.574;2022-11-15T04:16:44;31.83;;;13.65;;
57752;SDS011;43583;53.132;6.574;2022-11-15T04:19:10;33.97;;;14.02;;
57752;SDS011;43583;53.132;6.574;2022-11-15T04:21:54;33.05;;;13.93;;
57752;SDS011;43583;53.132;6.574;2022-11-15T04:24:38;35.58;;;15.13;;
57752;SDS011;43583;53.132;6.574;2022-11-15T04:27:03;34.25;;;14.18;;
57752;SDS011;43583;53.132;6.574;2022-11-15T04:29:29;34.50;;;14.63;;
57752;SDS011;43583;53.132;6.574;2022-11-15T04:32:01;34.53;;;13.93;;
57752;SDS011;43583;53.132;6.574;2022-11-15T04:34:28;33.17;;;14.68;;
57752;SDS011;43583;53.132;6.574;2022-11-15T04:36:54;33.63;;;14.32;;
57752;SDS011;43583;53.132;6.574;2022-11-15T04:39:37;39.03;;;14.70;;
57752;SDS011;43583;53.132;6.574;2022-11-15T04:42:04;37.38;;;15.15;;
57752;SDS011;43583;53.132;6.574;2022-11-15T04:44:29;41.38;;;16.45;;
57752;SDS011;43583;53.132;6.574;2022-11-15T04:46:55;34.58;;;15.23;;
57752;SDS011;43583;53.132;6.574;2022-11-15T04:49:21;38.38;;;16.00;;
57752;SDS011;43583;53.132;6.574;2022-11-15T04:51:46;39.25;;;15.10;;
57752;SDS011;43583;53.132;6.574;2022-11-15T04:54:12;36.97;;;15.15;;
57752;SDS011;43583;53.132;6.574;2022-11-15T04:56:37;34.83;;;15.48;;
57752;SDS011;43583;53.132;6.574;2022-11-15T04:59:03;41.13;;;15.68;;
57752;SDS011;43583;53.132;6.574;2022-11-15T05:01:28;54.70;;;17.48;;
57752;SDS011;43583;53.132;6.574;2022-11-15T05:03:54;47.47;;;16.30;;
57752;SDS011;43583;53.132;6.574;2022-11-15T05:06:38;43.40;;;17.00;;
57752;SDS011;43583;53.132;6.574;2022-11-15T05:09:04;46.70;;;16.77;;
57752;SDS011;43583;53.132;6.574;2022-11-15T05:11:29;48.05;;;18.15;;
57752;SDS011;43583;53.132;6.574;2022-11-15T05:13:55;51.05;;;18.92;;
57752;SDS011;43583;53.132;6.574;2022-11-15T05:16:20;39.60;;;16.10;;
57752;SDS011;43583;53.132;6.574;2022-11-15T05:18:46;41.13;;;18.10;;
57752;SDS011;43583;53.132;6.574;2022-11-15T05:21:15;42.08;;;18.00;;
57752;SDS011;43583;53.132;6.574;2022-11-15T05:23:41;44.92;;;18.08;;
57752;SDS011;43583;53.132;6.574;2022-11-15T05:26:07;47.13;;;17.73;;
57752;SDS011;43583;53.132;6.574;2022-11-15T05:28:33;53.63;;;20.77;;
57752;SDS011;43583;53.132;6.574;2022-11-15T05:31:06;49.53;;;18.08;;
57752;SDS011;43583;53.132;6.574;2022-11-15T05:33:34;42.90;;;18.25;;
57752;SDS011;43583;53.132;6.574;2022-11-15T05:38:52;50.60;;;20.02;;
57752;SDS011;43583;53.132;6.574;2022-11-15T05:41:18;54.53;;;21.58;;
57752;SDS011;43583;53.132;6.574;2022-11-15T05:43:47;42.83;;;17.52;;
57752;SDS011;43583;53.132;6.574;2022-11-15T05:46:14;60.95;;;21.63;;
57752;SDS011;43583;53.132;6.574;2022-11-15T05:48:41;55.55;;;20.67;;
57752;SDS011;43583;53.132;6.574;2022-11-15T05:51:10;64.43;;;21.70;;
57752;SDS011;43583;53.132;6.574;2022-11-15T05:53:39;54.65;;;20.02;;
57752;SDS011;43583;53.132;6.574;2022-11-15T05:56:04;56.28;;;20.73;;
57752;SDS011;43583;53.132;6.574;2022-11-15T05:58:34;57.97;;;21.42;;
57752;SDS011;43583;53.132;6.574;2022-11-15T06:01:01;57.67;;;20.75;;
57752;SDS011;43583;53.132;6.574;2022-11-15T06:03:27;55.22;;;21.45;;
57752;SDS011;43583;53.132;6.574;2022-11-15T06:05:53;58.13;;;20.70;;
57752;SDS011;43583;53.132;6.574;2022-11-15T06:08:18;57.38;;;22.05;;
57752;SDS011;43583;53.132;6.574;2022-11-15T06:10:44;49.80;;;20.40;;
57752;SDS011;43583;53.132;6.574;2022-11-15T06:13:09;52.58;;;20.00;;
57752;SDS011;43583;53.132;6.574;2022-11-15T06:15:35;53.75;;;20.10;;
57752;SDS011;43583;53.132;6.574;2022-11-15T06:18:00;53.28;;;21.25;;
57752;SDS011;43583;53.132;6.574;2022-11-15T06:20:27;57.33;;;23.52;;
57752;SDS011;43583;53.132;6.574;2022-11-15T06:22:57;57.90;;;22.25;;
57752;SDS011;43583;53.132;6.574;2022-11-15T06:25:23;54.67;;;22.67;;
57752;SDS011;43583;53.132;6.574;2022-11-15T06:27:52;60.67;;;23.73;;
57752;SDS011;43583;53.132;6.574;2022-11-15T06:30:19;55.03;;;22.27;;
57752;SDS011;43583;53.132;6.574;2022-11-15T06:32:45;56.55;;;22.45;;
57752;SDS011;43583;53.132;6.574;2022-11-15T06:35:11;56.33;;;21.95;;
57752;SDS011;43583;53.132;6.574;2022-11-15T06:37:37;56.20;;;22.13;;
57752;SDS011;43583;53.132;6.574;2022-11-15T06:40:02;52.00;;;22.00;;
57752;SDS011;43583;53.132;6.574;2022-11-15T06:42:28;46.47;;;19.58;;
57752;SDS011;43583;53.132;6.574;2022-11-15T06:44:54;61.38;;;22.17;;
57752;SDS011;43583;53.132;6.574;2022-11-15T06:47:19;56.17;;;21.75;;
57752;SDS011;43583;53.132;6.574;2022-11-15T06:49:45;57.13;;;23.08;;
57752;SDS011;43583;53.132;6.574;2022-11-15T06:52:10;56.50;;;22.08;;
57752;SDS011;43583;53.132;6.574;2022-11-15T06:54:36;56.30;;;21.67;;
57752;SDS011;43583;53.132;6.574;2022-11-15T06:57:03;52.13;;;21.90;;
57752;SDS011;43583;53.132;6.574;2022-11-15T06:59:29;55.33;;;21.80;;
57752;SDS011;43583;53.132;6.574;2022-11-15T07:01:55;53.97;;;21.98;;
57752;SDS011;43583;53.132;6.574;2022-11-15T07:04:20;48.38;;;21.52;;
57752;SDS011;43583;53.132;6.574;2022-11-15T07:06:46;58.03;;;22.40;;
57752;SDS011;43583;53.132;6.574;2022-11-15T07:09:13;48.00;;;21.15;;
57752;SDS011;43583;53.132;6.574;2022-11-15T07:11:39;64.00;;;22.55;;
57752;SDS011;43583;53.132;6.574;2022-11-15T07:14:05;51.63;;;21.60;;
57752;SDS011;43583;53.132;6.574;2022-11-15T07:16:30;51.97;;;20.52;;
57752;SDS011;43583;53.132;6.574;2022-11-15T07:18:56;50.00;;;19.80;;
57752;SDS011;43583;53.132;6.574;2022-11-15T07:21:21;51.17;;;21.40;;
57752;SDS011;43583;53.132;6.574;2022-11-15T07:23:47;44.58;;;19.48;;
57752;SDS011;43583;53.132;6.574;2022-11-15T07:26:12;47.50;;;20.48;;
57752;SDS011;43583;53.132;6.574;2022-11-15T07:28:38;52.70;;;22.38;;
57752;SDS011;43583;53.132;6.574;2022-11-15T07:31:04;48.55;;;21.10;;
57752;SDS011;43583;53.132;6.574;2022-11-15T07:33:30;49.13;;;20.98;;
57752;SDS011;43583;53.132;6.574;2022-11-15T07:36:00;50.35;;;20.75;;
57752;SDS011;43583;53.132;6.574;2022-11-15T07:38:29;53.80;;;19.70;;
57752;SDS011;43583;53.132;6.574;2022-11-15T07:40:56;48.53;;;19.83;;
57752;SDS011;43583;53.132;6.574;2022-11-15T07:43:23;40.25;;;18.50;;
57752;SDS011;43583;53.132;6.574;2022-11-15T07:45:49;46.15;;;18.80;;
57752;SDS011;43583;53.132;6.574;2022-11-15T07:48:15;55.42;;;20.58;;
57752;SDS011;43583;53.132;6.574;2022-11-15T07:50:41;51.50;;;19.08;;
57752;SDS011;43583;53.132;6.574;2022-11-15T07:53:07;44.83;;;21.27;;
57752;SDS011;43583;53.132;6.574;2022-11-15T07:55:34;46.22;;;18.98;;
57752;SDS011;43583;53.132;6.574;2022-11-15T07:58:00;50.58;;;21.15;;
57752;SDS011;43583;53.132;6.574;2022-11-15T08:00:26;43.80;;;20.73;;
57752;SDS011;43583;53.132;6.574;2022-11-15T08:02:52;42.13;;;18.77;;
57752;SDS011;43583;53.132;6.574;2022-11-15T08:05:17;45.70;;;19.52;;
57752;SDS011;43583;53.132;6.574;2022-11-15T08:07:43;45.50;;;17.85;;
57752;SDS011;43583;53.132;6.574;2022-11-15T08:10:09;42.80;;;18.83;;
57752;SDS011;43583;53.132;6.574;2022-11-15T08:12:36;41.35;;;18.90;;
57752;SDS011;43583;53.132;6.574;2022-11-15T08:15:02;40.90;;;19.70;;
57752;SDS011;43583;53.132;6.574;2022-11-15T08:17:28;44.13;;;18.83;;
57752;SDS011;43583;53.132;6.574;2022-11-15T08:19:56;38.95;;;18.23;;
57752;SDS011;43583;53.132;6.574;2022-11-15T08:22:22;44.95;;;18.83;;
57752;SDS011;43583;53.132;6.574;2022-11-15T08:24:47;36.78;;;18.27;;
57752;SDS011;43583;53.132;6.574;2022-11-15T08:27:13;35.33;;;16.90;;
57752;SDS011;43583;53.132;6.574;2022-11-15T08:29:44;37.35;;;17.60;;
57752;SDS011;43583;53.132;6.574;2022-11-15T08:32:10;34.95;;;16.88;;
57752;SDS011;43583;53.132;6.574;2022-11-15T08:34:37;28.67;;;18.08;;
57752;SDS011;43583;53.132;6.574;2022-11-15T08:37:03;34.65;;;16.77;;
57752;SDS011;43583;53.132;6.574;2022-11-15T08:39:29;32.88;;;16.48;;
57752;SDS011;43583;53.132;6.574;2022-11-15T08:41:54;35.08;;;17.48;;
57752;SDS011;43583;53.132;6.574;2022-11-15T08:44:20;37.55;;;15.40;;
57752;SDS011;43583;53.132;6.574;2022-11-15T08:46:45;29.48;;;15.05;;
57752;SDS011;43583;53.132;6.574;2022-11-15T08:49:11;30.98;;;16.02;;
57752;SDS011;43583;53.132;6.574;2022-11-15T08:51:37;32.30;;;16.05;;
57752;SDS011;43583;53.132;6.574;2022-11-15T08:54:02;27.80;;;14.13;;
57752;SDS011;43583;53.132;6.574;2022-11-15T08:56:28;32.42;;;15.07;;
57752;SDS011;43583;53.132;6.574;2022-11-15T08:58:54;30.75;;;15.45;;
57752;SDS011;43583;53.132;6.574;2022-11-15T09:01:20;29.08;;;15.35;;
57752;SDS011;43583;53.132;6.574;2022-11-15T09:03:46;29.77;;;14.65;;
57752;SDS011;43583;53.132;6.574;2022-11-15T09:06:12;26.48;;;13.90;;
57752;SDS011;43583;53.132;6.574;2022-11-15T09:08:37;29.40;;;14.98;;
57752;SDS011;43583;53.132;6.574;2022-11-15T09:11:04;26.60;;;14.88;;
57752;SDS011;43583;53.132;6.574;2022-11-15T09:13:31;26.13;;;13.95;;
57752;SDS011;43583;53.132;6.574;2022-11-15T09:15:57;22.63;;;14.38;;
57752;SDS011;43583;53.132;6.574;2022-11-15T09:18:24;24.58;;;13.98;;
57752;SDS011;43583;53.132;6.574;2022-11-15T09:20:50;22.08;;;12.18;;
57752;SDS011;43583;53.132;6.574;2022-11-15T09:23:15;26.45;;;12.98;;
57752;SDS011;43583;53.132;6.574;2022-11-15T09:25:41;22.95;;;12.00;;
57752;SDS011;43583;53.132;6.574;2022-11-15T09:28:07;22.48;;;12.35;;
57752;SDS011;43583;53.132;6.574;2022-11-15T09:30:33;20.15;;;11.50;;
57752;SDS011;43583;53.132;6.574;2022-11-15T09:32:58;23.70;;;12.45;;
57752;SDS011;43583;53.132;6.574;2022-11-15T09:35:30;20.85;;;12.23;;
57752;SDS011;43583;53.132;6.574;2022-11-15T09:37:57;22.45;;;12.50;;
57752;SDS011;43583;53.132;6.574;2022-11-15T09:40:23;26.13;;;12.70;;
57752;SDS011;43583;53.132;6.574;2022-11-15T09:48:23;22.55;;;11.88;;
57752;SDS011;43583;53.132;6.574;2022-11-15T09:51:12;21.10;;;11.77;;
57752;SDS011;43583;53.132;6.574;2022-11-15T09:56:26;17.33;;;11.20;;
57752;SDS011;43583;53.132;6.574;2022-11-15T09:58:58;20.70;;;11.00;;
57752;SDS011;43583;53.132;6.574;2022-11-15T10:01:37;16.10;;;9.93;;
57752;SDS011;43583;53.132;6.574;2022-11-15T10:04:10;21.10;;;11.00;;
57752;SDS011;43583;53.132;6.574;2022-11-15T10:06:37;17.50;;;9.93;;
57752;SDS011;43583;53.132;6.574;2022-11-15T10:09:17;17.80;;;10.50;;
57752;SDS011;43583;53.132;6.574;2022-11-15T10:11:48;18.38;;;9.93;;
57752;SDS011;43583;53.132;6.574;2022-11-15T10:14:15;15.02;;;9.25;;
57752;SDS011;43583;53.132;6.574;2022-11-15T10:16:54;16.33;;;9.27;;
57752;SDS011;43583;53.132;6.574;2022-11-15T10:22:50;16.67;;;9.70;;
57752;SDS011;43583;53.132;6.574;2022-11-15T10:30:42;19.88;;;10.48;;
57752;SDS011;43583;53.132;6.574;2022-11-15T10:49:28;16.92;;;10.38;;
57752;SDS011;43583;53.132;6.574;2022-11-15T10:52:04;13.80;;;8.95;;
57752;SDS011;43583;53.132;6.574;2022-11-15T10:54:40;23.40;;;10.73;;
57752;SDS011;43583;53.132;6.574;2022-11-15T10:57:37;17.13;;;9.73;;
57752;SDS011;43583;53.132;6.574;2022-11-15T11:00:05;15.00;;;9.13;;
57752;SDS011;43583;53.132;6.574;2022-11-15T11:03:04;16.73;;;9.43;;
57752;SDS011;43583;53.132;6.574;2022-11-15T11:05:35;15.30;;;8.63;;
57752;SDS011;43583;53.132;6.574;2022-11-15T11:10:56;14.30;;;8.95;;
57752;SDS011;43583;53.132;6.574;2022-11-15T11:13:24;14.50;;;9.23;;
57752;SDS011;43583;53.132;6.574;2022-11-15T11:16:14;14.65;;;8.98;;
57752;SDS011;43583;53.132;6.574;2022-11-15T11:21:36;14.85;;;8.88;;
57752;SDS011;43583;53.132;6.574;2022-11-15T11:32:46;11.40;;;7.75;;
57752;SDS011;43583;53.132;6.574;2022-11-15T11:38:11;15.10;;;8.85;;
57752;SDS011;43583;53.132;6.574;2022-11-15T11:41:10;9.98;;;6.97;;
57752;SDS011;43583;53.132;6.574;2022-11-15T11:47:01;8.07;;;5.90;;
57752;SDS011;43583;53.132;6.574;2022-11-15T11:49:48;9.60;;;5.07;;
57752;SDS011;43583;53.132;6.574;2022-11-15T11:54:46;7.55;;;4.55;;
57752;SDS011;43583;53.132;6.574;2022-11-15T12:00:19;5.22;;;3.92;;
57752;SDS011;43583;53.132;6.574;2022-11-15T12:03:05;5.85;;;3.80;;
57752;SDS011;43583;53.132;6.574;2022-11-15T12:13:37;4.07;;;1.90;;
57752;SDS011;43583;53.132;6.574;2022-11-15T12:18:49;4.57;;;2.15;;
57752;SDS011;43583;53.132;6.574;2022-11-15T12:24:06;7.35;;;2.85;;
57752;SDS011;43583;53.132;6.574;2022-11-15T12:26:49;4.43;;;2.30;;
57752;SDS011;43583;53.132;6.574;2022-11-15T12:29:25;8.50;;;2.92;;
57752;SDS011;43583;53.132;6.574;2022-11-15T12:31:56;5.45;;;2.22;;
57752;SDS011;43583;53.132;6.574;2022-11-15T12:36:53;1.90;;;0.63;;
57752;SDS011;43583;53.132;6.574;2022-11-15T12:39:19;1.90;;;1.13;;
57752;SDS011;43583;53.132;6.574;2022-11-15T12:57:32;6.38;;;1.67;;
57752;SDS011;43583;53.132;6.574;2022-11-15T12:59:56;3.00;;;1.10;;
57752;SDS011;43583;53.132;6.574;2022-11-15T13:02:44;3.20;;;1.88;;
57752;SDS011;43583;53.132;6.574;2022-11-15T13:12:53;3.15;;;1.52;;
57752;SDS011;43583;53.132;6.574;2022-11-15T13:17:55;3.60;;;1.67;;
57752;SDS011;43583;53.132;6.574;2022-11-15T13:20:22;3.88;;;1.85;;
57752;SDS011;43583;53.132;6.574;2022-11-15T13:22:59;2.40;;;1.20;;
57752;SDS011;43583;53.132;6.574;2022-11-15T13:28:30;4.55;;;1.13;;
57752;SDS011;43583;53.132;6.574;2022-11-15T13:31:21;9.05;;;1.50;;
57752;SDS011;43583;53.132;6.574;2022-11-15T13:33:50;3.70;;;0.88;;
57752;SDS011;43583;53.132;6.574;2022-11-15T13:39:02;2.25;;;1.15;;
57752;SDS011;43583;53.132;6.574;2022-11-15T13:41:34;4.72;;;0.65;;
57752;SDS011;43583;53.132;6.574;2022-11-15T13:44:01;2.75;;;0.77;;
57752;SDS011;43583;53.132;6.574;2022-11-15T13:46:32;5.35;;;0.65;;
57752;SDS011;43583;53.132;6.574;2022-11-15T13:49:03;2.92;;;0.70;;
57752;SDS011;43583;53.132;6.574;2022-11-15T13:51:46;3.42;;;1.13;;
57752;SDS011;43583;53.132;6.574;2022-11-15T13:56:51;0.93;;;0.70;;
57752;SDS011;43583;53.132;6.574;2022-11-15T13:59:25;5.93;;;0.70;;
57752;SDS011;43583;53.132;6.574;2022-11-15T14:01:52;2.85;;;1.17;;
57752;SDS011;43583;53.132;6.574;2022-11-15T14:04:20;1.60;;;0.70;;
57752;SDS011;43583;53.132;6.574;2022-11-15T14:06:57;3.13;;;0.45;;
57752;SDS011;43583;53.132;6.574;2022-11-15T14:12:25;1.48;;;0.50;;
57752;SDS011;43583;53.132;6.574;2022-11-15T14:14:51;3.08;;;0.73;;
57752;SDS011;43583;53.132;6.574;2022-11-15T14:17:21;1.15;;;0.50;;
57752;SDS011;43583;53.132;6.574;2022-11-15T14:19:59;3.20;;;0.63;;
57752;SDS011;43583;53.132;6.574;2022-11-15T14:22:29;2.05;;;0.30;;
57752;SDS011;43583;53.132;6.574;2022-11-15T14:25:15;2.13;;;0.38;;
57752;SDS011;43583;53.132;6.574;2022-11-15T14:30:49;2.67;;;0.40;;
57752;SDS011;43583;53.132;6.574;2022-11-15T14:33:33;2.45;;;0.52;;
57752;SDS011;43583;53.132;6.574;2022-11-15T14:36:12;2.90;;;0.68;;
57752;SDS011;43583;53.132;6.574;2022-11-15T14:38:40;2.88;;;0.88;;
57752;SDS011;43583;53.132;6.574;2022-11-15T14:41:17;3.28;;;0.65;;
57752;SDS011;43583;53.132;6.574;2022-11-15T14:43:48;2.30;;;0.73;;
57752;SDS011;43583;53.132;6.574;2022-11-15T14:46:14;1.25;;;0.30;;
57752;SDS011;43583;53.132;6.574;2022-11-15T14:48:40;0.98;;;0.50;;
57752;SDS011;43583;53.132;6.574;2022-11-15T14:51:17;1.67;;;0.40;;
57752;SDS011;43583;53.132;6.574;2022-11-15T14:53:44;0.80;;;0.28;;
57752;SDS011;43583;53.132;6.574;2022-11-15T14:56:10;2.95;;;0.30;;
57752;SDS011;43583;53.132;6.574;2022-11-15T14:58:36;1.83;;;0.50;;
57752;SDS011;43583;53.132;6.574;2022-11-15T15:01:02;2.05;;;0.35;;
57752;SDS011;43583;53.132;6.574;2022-11-15T15:03:39;1.33;;;0.30;;
57752;SDS011;43583;53.132;6.574;2022-11-15T15:06:04;1.25;;;0.30;;
57752;SDS011;43583;53.132;6.574;2022-11-15T15:08:30;1.30;;;0.20;;
57752;SDS011;43583;53.132;6.574;2022-11-15T15:10:56;1.17;;;0.30;;
57752;SDS011;43583;53.132;6.574;2022-11-15T15:13:22;1.10;;;0.47;;
57752;SDS011;43583;53.132;6.574;2022-11-15T15:15:49;0.55;;;0.20;;
57752;SDS011;43583;53.132;6.574;2022-11-15T15:18:16;3.25;;;0.35;;
57752;SDS011;43583;53.132;6.574;2022-11-15T15:20:43;1.75;;;0.30;;
57752;SDS011;43583;53.132;6.574;2022-11-15T15:23:16;0.80;;;0.30;;
57752;SDS011;43583;53.132;6.574;2022-11-15T15:25:43;1.73;;;0.30;;
57752;SDS011;43583;53.132;6.574;2022-11-15T15:28:10;0.80;;;0.25;;
57752;SDS011;43583;53.132;6.574;2022-11-15T15:30:36;2.00;;;0.77;;
57752;SDS011;43583;53.132;6.574;2022-11-15T15:33:01;2.78;;;0.70;;
57752;SDS011;43583;53.132;6.574;2022-11-15T15:35:29;1.98;;;0.65;;
57752;SDS011;43583;53.132;6.574;2022-11-15T15:37:57;2.05;;;0.77;;
57752;SDS011;43583;53.132;6.574;2022-11-15T15:40:24;1.35;;;0.52;;
57752;SDS011;43583;53.132;6.574;2022-11-15T15:42:51;1.15;;;0.50;;
57752;SDS011;43583;53.132;6.574;2022-11-15T15:45:17;2.83;;;1.00;;
57752;SDS011;43583;53.132;6.574;2022-11-15T15:47:43;1.67;;;1.15;;
57752;SDS011;43583;53.132;6.574;2022-11-15T15:50:32;2.45;;;1.05;;
57752;SDS011;43583;53.132;6.574;2022-11-15T15:52:59;2.58;;;0.93;;
57752;SDS011;43583;53.132;6.574;2022-11-15T15:55:26;4.25;;;1.40;;
57752;SDS011;43583;53.132;6.574;2022-11-15T15:57:52;1.90;;;1.20;;
57752;SDS011;43583;53.132;6.574;2022-11-15T16:00:19;2.85;;;1.88;;
57752;SDS011;43583;53.132;6.574;2022-11-15T16:02:46;2.17;;;1.10;;
57752;SDS011;43583;53.132;6.574;2022-11-15T16:05:12;4.07;;;1.30;;
57752;SDS011;43583;53.132;6.574;2022-11-15T16:07:38;3.42;;;1.58;;
57752;SDS011;43583;53.132;6.574;2022-11-15T16:10:16;8.68;;;2.78;;
57752;SDS011;43583;53.132;6.574;2022-11-15T16:12:41;2.20;;;1.30;;
57752;SDS011;43583;53.132;6.574;2022-11-15T16:15:07;3.97;;;2.15;;
57752;SDS011;43583;53.132;6.574;2022-11-15T16:17:38;2.80;;;1.50;;
57752;SDS011;43583;53.132;6.574;2022-11-15T16:20:09;3.20;;;1.95;;
57752;SDS011;43583;53.132;6.574;2022-11-15T16:22:47;4.68;;;1.65;;
57752;SDS011;43583;53.132;6.574;2022-11-15T16:25:12;3.42;;;1.38;;
57752;SDS011;43583;53.132;6.574;2022-11-15T16:27:38;2.42;;;1.98;;
57752;SDS011;43583;53.132;6.574;2022-11-15T16:30:12;4.47;;;2.17;;
57752;SDS011;43583;53.132;6.574;2022-11-15T16:32:41;8.07;;;2.17;;
57752;SDS011;43583;53.132;6.574;2022-11-15T16:35:10;2.72;;;2.17;;
57752;SDS011;43583;53.132;6.574;2022-11-15T16:37:37;3.45;;;2.10;;
57752;SDS011;43583;53.132;6.574;2022-11-15T16:40:05;2.25;;;1.60;;
57752;SDS011;43583;53.132;6.574;2022-11-15T16:42:51;3.28;;;2.15;;
57752;SDS011;43583;53.132;6.574;2022-11-15T16:45:16;2.97;;;2.03;;
57752;SDS011;43583;53.132;6.574;2022-11-15T16:47:42;2.28;;;2.03;;
57752;SDS011;43583;53.132;6.574;2022-11-15T16:50:27;4.03;;;1.95;;
57752;SDS011;43583;53.132;6.574;2022-11-15T16:52:55;4.43;;;1.85;;
57752;SDS011;43583;53.132;6.574;2022-11-15T16:55:24;1.80;;;1.52;;
57752;SDS011;43583;53.132;6.574;2022-11-15T16:57:51;2.80;;;1.77;;
57752;SDS011;43583;53.132;6.574;2022-11-15T17:00:18;3.90;;;1.20;;
57752;SDS011;43583;53.132;6.574;2022-11-15T17:02:48;2.33;;;1.25;;
57752;SDS011;43583;53.132;6.574;2022-11-15T17:05:16;6.43;;;1.80;;
57752;SDS011;43583;53.132;6.574;2022-11-15T17:07:45;2.83;;;1.02;;
57752;SDS011;43583;53.132;6.574;2022-11-15T17:10:14;1.60;;;1.20;;